Data for 10/15/2016

Time Sea-Level Adjusted Pressure Absolute Pressure Temperature Relative Humidity Dew Point   
(mb) (inHg) (mb) (inHg) (C) (F) (%) (C) (F)
00:05 1011 29.85 840 24.81 8.7 47.6 51 -0.8 30.6
00:10 1011 29.85 840 24.81 8.6 47.5 50 -1.1 30
00:15 1011 29.85 840 24.81 8.7 47.6 50 -1 30.2
00:20 1011 29.85 840 24.81 8.6 47.5 51 -0.9 30.3
00:25 1011 29.85 840 24.81 8.6 47.4 53 -0.4 31.3
00:30 1011 29.85 840 24.81 8.3 46.9 55 -0.1 31.8
00:35 1011 29.85 840 24.81 8 46.3 56 -0.2 31.7
00:40 1011 29.85 840 24.81 7.9 46.1 55 -0.5 31.1
00:45 1011 29.85 840 24.81 8 46.3 55 -0.5 31.1
00:50 1011 29.85 840 24.81 7.9 46.1 56 -0.5 31.2
00:55 1011 29.85 840 24.81 7.9 46.2 55 -0.7 30.8
01:00 1011 29.85 840 24.81 8 46.5 53 -0.9 30.4
01:05 1011 29.85 840 24.81 8.2 46.7 53 -0.9 30.5
01:10 1011 29.85 840 24.81 8.2 46.7 53 -0.9 30.3
01:15 1011 29.85 840 24.81 8.2 46.7 51 -1.2 29.8
01:20 1011 29.85 840 24.81 8.2 46.8 52 -1 30.2
01:25 1011 29.85 840 24.81 8.2 46.8 52 -1 30.2
01:30 1011 29.85 840 24.81 8.2 46.8 52 -1.1 30.1
01:35 1011 29.85 840 24.81 8.2 46.7 52 -1.1 30
01:40 1011 29.85 840 24.81 8.2 46.8 52 -1 30.2
01:45 1011 29.85 840 24.81 8.2 46.7 52 -0.9 30.3
01:50 1011 29.85 840 24.81 8.1 46.5 53 -1 30.3
01:55 1011 29.85 840 24.81 8 46.4 53 -1 30.2
02:00 1011 29.85 841 24.83 7.9 46.3 54 -0.9 30.4
02:05 1011 29.85 841 24.83 7.8 46.1 54 -0.9 30.3
02:10 1011 29.85 841 24.83 7.7 45.9 54 -1 30.3
02:15 1012 29.88 841 24.83 7.6 45.7 57 -0.3 31.5
02:20 1012 29.88 841 24.83 7.1 44.7 58 -0.6 30.9
02:25 1011 29.85 841 24.83 7 44.5 58 -0.7 30.8
02:30 1011 29.85 841 24.83 6.9 44.3 59 -0.5 31
02:35 1011 29.85 841 24.83 6.7 44.1 59 -0.7 30.7
02:40 1011 29.85 841 24.83 6.8 44.2 56 -1.4 29.6
02:45 1011 29.85 841 24.83 7.5 45.5 53 -1.4 29.6
02:50 1012 29.88 841 24.83 7.6 45.8 56 -0.5 31
02:55 1012 29.88 841 24.83 7.4 45.4 55 -0.9 30.4
03:00 1012 29.88 841 24.83 7.5 45.5 54 -1.2 29.8
03:05 1012 29.88 841 24.83 7.9 46.3 51 -1.6 29
03:10 1012 29.88 841 24.83 8.2 46.8 51 -1.4 29.6
03:15 1011 29.85 841 24.83 8.3 46.9 51 -1.2 29.9
03:20 1011 29.85 841 24.83 8.2 46.8 53 -0.8 30.5
03:25 1012 29.88 841 24.83 7.9 46.2 57 -0.2 31.7
03:30 1012 29.88 841 24.83 7.5 45.5 59 -0 32
03:35 1011 29.85 841 24.83 6.8 44.3 60 -0.4 31.2
03:40 1011 29.85 841 24.83 6.6 43.8 62 -0.1 31.8
03:45 1011 29.85 840 24.81 6.2 43.2 64 0 32
03:50 1011 29.85 840 24.81 6 42.8 65 -0 32
03:55 1011 29.85 840 24.81 5.8 42.5 67 0.2 32.3
04:00 1011 29.85 840 24.81 5.7 42.3 65 -0.3 31.4
04:05 1011 29.85 840 24.81 6.2 43.2 64 -0.1 31.9
04:10 1011 29.85 840 24.81 5.9 42.7 65 -0.2 31.6
04:15 1011 29.85 840 24.81 6 42.8 60 -1.2 29.9
04:20 1011 29.85 840 24.81 6.6 43.9 60 -0.6 30.9
04:25 1011 29.85 840 24.81 6.9 44.3 59 -0.6 31
04:30 1011 29.85 840 24.81 6.8 44.2 61 -0.1 31.8
04:35 1011 29.85 840 24.81 6.7 44 59 -0.8 30.6
04:40 1011 29.85 840 24.81 6.9 44.5 62 0.1 32.2
04:45 1011 29.85 840 24.81 6.4 43.6 60 -0.7 30.7
04:50 1011 29.85 840 24.81 6.9 44.4 59 -0.6 31
04:55 1011 29.85 840 24.81 6.8 44.3 63 0.3 32.5
05:00 1011 29.85 841 24.83 6.3 43.3 64 -0 31.9
05:05 1011 29.85 841 24.83 6.4 43.5 63 -0 32
05:10 1012 29.88 841 24.83 6.5 43.6 65 0.3 32.5
05:15 1012 29.88 841 24.83 6.3 43.3 66 0.5 32.9
05:20 1012 29.88 841 24.83 6.2 43.1 66 0.3 32.5
05:25 1012 29.88 841 24.83 6.2 43.1 64 -0 32
05:30 1012 29.88 841 24.83 6.3 43.3 66 0.4 32.7
05:35 1012 29.88 841 24.83 6.3 43.3 65 0.3 32.6
05:40 1012 29.88 841 24.83 6.2 43.2 64 -0.1 31.9
05:45 1012 29.88 841 24.83 6.2 43.2 63 -0.3 31.4
05:50 1012 29.88 841 24.83 6.6 43.9 57 -1.2 29.9
05:55 1012 29.88 841 24.83 7.1 44.8 57 -0.9 30.4
06:00 1012 29.88 841 24.83 7.3 45.2 58 -0.4 31.2
06:05 1012 29.88 841 24.83 7.6 45.6 57 -0.3 31.4
06:10 1012 29.88 841 24.83 7.4 45.2 63 0.8 33.5
06:15 1012 29.88 841 24.83 6.3 43.3 65 0.3 32.5
06:20 1011 29.85 841 24.83 6.4 43.4 62 -0.3 31.4
06:25 1012 29.88 841 24.83 6.9 44.4 61 -0.1 31.8
06:30 1012 29.88 841 24.83 7 44.5 63 0.5 32.9
06:35 1012 29.88 841 24.83 6.3 43.4 67 0.7 33.2
06:40 1012 29.88 841 24.83 5.8 42.4 68 0.3 32.6
06:45 1012 29.88 841 24.83 5.7 42.3 67 0 32.1
06:50 1012 29.88 841 24.83 6 42.8 65 0 32
06:55 1012 29.88 841 24.83 6.2 43.2 64 -0 32
07:00 1012 29.88 841 24.83 6.4 43.5 64 0 32.1
07:05 1012 29.88 841 24.83 6.5 43.6 65 0.4 32.7
07:10 1012 29.88 841 24.83 6 42.9 67 0.4 32.8
07:15 1012 29.88 841 24.83 5.9 42.7 67 0.2 32.4
07:20 1012 29.88 841 24.83 5.8 42.4 68 0.3 32.5
07:25 1012 29.88 841 24.83 5.6 42.1 68 0.2 32.4
07:30 1012 29.88 841 24.83 5.5 41.8 69 0.3 32.5
07:35 1012 29.88 841 24.83 5.2 41.3 70 0.1 32.1
07:40 1012 29.88 841 24.83 5.2 41.3 70 0.1 32.2
07:45 1012 29.88 841 24.83 5.1 41.2 71 0.2 32.3
07:50 1012 29.88 841 24.83 4.9 40.9 72 0.3 32.5
07:55 1012 29.88 841 24.83 5 40.9 70 -0 32
08:00 1012 29.88 841 24.83 5 41.1 71 0.3 32.5
08:05 1012 29.88 841 24.83 5.2 41.3 68 -0.3 31.5
08:10 1012 29.88 841 24.83 5.5 41.8 68 0.1 32.2
08:15 1012 29.88 842 24.86 5.5 41.8 68 0.1 32.1
08:20 1012 29.88 842 24.86 5.8 42.4 66 -0.2 31.7
08:25 1012 29.88 842 24.86 6 42.8 65 0 32.1
08:30 1012 29.88 842 24.86 6.1 43.1 65 0.1 32.1
08:35 1012 29.88 841 24.83 6.4 43.5 64 0 32
08:40 1012 29.88 842 24.86 6.5 43.7 63 0 32
08:45 1012 29.88 842 24.86 6.7 44.1 63 0.2 32.4
08:50 1012 29.88 842 24.86 6.6 43.9 66 0.7 33.3
08:55 1013 29.91 842 24.86 6.2 43.2 69 0.9 33.6
09:00 1013 29.91 842 24.86 5.9 42.6 70 0.9 33.6
09:05 1013 29.91 842 24.86 5.8 42.5 69 0.6 33.1
09:10 1013 29.91 842 24.86 6.1 42.9 65 0 32.1
09:15 1013 29.91 842 24.86 6.8 44.2 60 -0.5 31.2
09:20 1013 29.91 842 24.86 7.6 45.7 59 0.1 32.2
09:25 1013 29.91 842 24.86 7.9 46.1 59 0.4 32.8
09:30 1013 29.91 842 24.86 8.3 47 54 -0.3 31.4
09:35 1013 29.91 842 24.86 9.4 48.8 52 0.2 32.3
09:40 1013 29.91 842 24.86 9.8 49.6 50 -0.1 31.7
09:45 1013 29.91 842 24.86 9.9 49.8 50 -0.1 31.8
09:50 1013 29.91 842 24.86 10.2 50.4 50 0.3 32.6
09:55 1013 29.91 842 24.86 10.4 50.8 48 -0.2 31.7
10:00 1013 29.91 842 24.86 10.9 51.6 46 -0.4 31.3
10:05 1013 29.91 842 24.86 11.3 52.3 45 -0.2 31.6
10:10 1013 29.91 842 24.86 11 51.8 46 -0.3 31.5
10:15 1013 29.91 842 24.86 10.9 51.6 46 -0.1 31.9
10:20 1013 29.91 842 24.86 11.1 51.9 45 -0.5 31.2
10:25 1013 29.91 842 24.86 11.3 52.3 44 -0.6 31
10:30 1013 29.91 842 24.86 11.4 52.5 43 -0.7 30.8
10:35 1013 29.91 842 24.86 11.9 53.4 43 -0.4 31.3
10:40 1013 29.91 842 24.86 12.4 54.4 41 -0.5 31
10:45 1013 29.91 842 24.86 13.1 55.5 40 -0.2 31.6
10:50 1013 29.91 842 24.86 12.9 55.1 40 -0.3 31.5
10:55 1013 29.91 842 24.86 13.2 55.8 39 -0.5 31.1
11:00 1013 29.91 842 24.86 12.9 55.3 39 -0.5 31.1
11:05 1013 29.91 842 24.86 13 55.3 39 -0.5 31
11:10 1013 29.91 842 24.86 12.8 55 36 -1.9 28.6
11:15 1012 29.88 842 24.86 12.7 54.9 38 -1.2 29.8
11:20 1012 29.88 842 24.86 12.9 55.2 38 -1 30.1
11:25 1012 29.88 842 24.86 13 55.4 36 -1.5 29.3
11:30 1012 29.88 842 24.86 13.7 56.7 36 -0.9 30.4
11:35 1013 29.91 842 24.86 13.8 56.8 37 -0.8 30.6
11:40 1013 29.91 842 24.86 13.2 55.8 37 -1 30.2
11:45 1013 29.91 842 24.86 12.9 55.3 37 -1.2 29.8
11:50 1013 29.91 842 24.86 12.9 55.2 38 -1.1 30
11:55 1013 29.91 842 24.86 13.1 55.5 36 -1.8 28.8
12:00 1013 29.91 842 24.86 13.5 56.2 35 -1.6 29.1
12:05 1012 29.88 842 24.86 14 57.1 34 -1.4 29.4
12:10 1012 29.88 842 24.86 13.3 56 34 -2.2 28
12:15 1012 29.88 842 24.86 13 55.5 34 -2.4 27.6
12:20 1012 29.88 842 24.86 12.9 55.2 35 -2.3 27.8
12:25 1012 29.88 842 24.86 12.7 54.9 34 -2.7 27.1
12:30 1012 29.88 841 24.83 13.1 55.6 35 -2.1 28.3
12:35 1012 29.88 841 24.83 13.5 56.2 33 -2.5 27.5
12:40 1012 29.88 841 24.83 13.7 56.6 32 -2.7 27.1
12:45 1012 29.88 841 24.83 14.3 57.8 31 -2.5 27.6
12:50 1012 29.88 841 24.83 14.1 57.3 33 -2.1 28.3
12:55 1012 29.88 841 24.83 14.6 58.3 31 -2.3 27.9
13:00 1012 29.88 841 24.83 15.3 59.6 30 -1.9 28.6
13:05 1012 29.88 841 24.83 15 59 31 -1.7 28.9
13:10 1011 29.85 841 24.83 14.6 58.2 33 -1.6 29.2
13:15 1011 29.85 841 24.83 14.3 57.8 33 -1.5 29.2
13:20 1011 29.85 840 24.81 14.1 57.5 33 -1.7 28.9
13:25 1011 29.85 840 24.81 14.4 57.9 33 -1.7 29
13:30 1011 29.85 840 24.81 14.8 58.6 33 -1.3 29.7
13:35 1011 29.85 840 24.81 14.3 57.8 33 -1.8 28.8
13:40 1011 29.85 840 24.81 14.1 57.4 35 -1.2 29.9
13:45 1011 29.85 840 24.81 14.2 57.5 33 -1.8 28.8
13:50 1011 29.85 840 24.81 14.2 57.5 33 -1.7 29
13:55 1011 29.85 840 24.81 14.2 57.5 34 -1.5 29.3
14:00 1011 29.85 840 24.81 14.1 57.3 35 -1.1 30.1
14:05 1011 29.85 840 24.81 13.9 57.1 35 -1.4 29.5
14:10 1011 29.85 840 24.81 14.1 57.4 34 -1.6 29.1
14:15 1011 29.85 840 24.81 14.3 57.8 33 -1.5 29.3
14:20 1011 29.85 840 24.81 14.3 57.7 34 -1.2 29.9
14:25 1011 29.85 840 24.81 14.3 57.7 34 -1.1 29.9
14:30 1010 29.83 840 24.81 14.4 57.9 33 -1.7 29
14:35 1010 29.83 840 24.81 14.4 57.8 34 -1.3 29.6
14:40 1010 29.83 840 24.81 14.5 58.1 33 -1.3 29.6
14:45 1010 29.83 839 24.78 14.4 58 34 -1.2 29.9
14:50 1010 29.83 839 24.78 14.6 58.3 32 -1.7 28.9
14:55 1010 29.83 839 24.78 14.8 58.7 32 -1.5 29.2
15:00 1010 29.83 839 24.78 14.7 58.4 33 -1.3 29.7
15:05 1010 29.83 839 24.78 14.6 58.2 35 -0.7 30.8
15:10 1010 29.83 839 24.78 14.4 58 34 -1.3 29.6
15:15 1010 29.83 839 24.78 14.6 58.3 35 -0.7 30.8
15:20 1010 29.83 839 24.78 14.4 57.8 35 -0.7 30.7
15:25 1010 29.83 839 24.78 14.2 57.6 35 -0.9 30.4
15:30 1010 29.83 839 24.78 14.2 57.5 34 -1.4 29.4
15:35 1010 29.83 839 24.78 14.3 57.7 33 -1.6 29.2
15:40 1010 29.83 839 24.78 14.3 57.7 33 -1.6 29.1
15:45 1010 29.83 839 24.78 14.4 57.9 34 -1.3 29.6
15:50 1010 29.83 839 24.78 14.5 58 33 -1.6 29.2
15:55 1010 29.83 839 24.78 14.5 58.2 33 -1.5 29.3
16:00 1010 29.83 839 24.78 14.4 58 34 -1 30.2
16:05 1010 29.83 839 24.78 14.7 58.5 33 -1.1 30
16:10 1010 29.83 839 24.78 14.4 58 34 -1 30.3
16:15 1010 29.83 839 24.78 14.2 57.6 35 -0.8 30.5
16:20 1010 29.83 839 24.78 14 57.2 37 -0.5 31
16:25 1010 29.83 839 24.78 13.9 57.1 36 -0.7 30.7
16:30 1010 29.83 839 24.78 13.8 56.9 37 -0.7 30.8
16:35 1010 29.83 839 24.78 13.8 56.8 37 -0.5 31
16:40 1010 29.83 839 24.78 13.8 56.8 38 -0.1 31.8
16:45 1010 29.83 839 24.78 13.8 56.8 37 -0.4 31.2
16:50 1010 29.83 839 24.78 13.8 56.8 37 -0.5 31.1
16:55 1010 29.83 839 24.78 13.8 56.8 38 -0.2 31.6
17:00 1010 29.83 839 24.78 13.7 56.6 39 -0 32
17:05 1010 29.83 839 24.78 13.7 56.6 39 -0.1 31.8
17:10 1009 29.8 839 24.78 13.8 56.8 38 -0.2 31.7
17:15 1009 29.8 838 24.75 13.7 56.7 38 -0.4 31.3
17:20 1009 29.8 838 24.75 13.8 56.9 39 0.1 32.2
17:25 1009 29.8 838 24.75 13.9 56.9 38 -0.2 31.6
17:30 1009 29.8 838 24.75 13.9 57.1 37 -0.4 31.3
17:35 1009 29.8 838 24.75 13.9 57 38 -0 32
17:40 1009 29.8 838 24.75 13.8 56.9 39 0 32.1
17:45 1009 29.8 838 24.75 13.7 56.7 39 0.2 32.3
17:50 1009 29.8 838 24.75 13.7 56.7 36 -0.8 30.5
17:55 1009 29.8 838 24.75 13.8 56.9 37 -0.6 31
18:00 1009 29.8 838 24.75 13.7 56.7 38 -0.4 31.3
18:05 1009 29.8 838 24.75 13.7 56.6 38 -0.5 31.2
18:10 1009 29.8 838 24.75 13.6 56.5 38 -0.5 31.1
18:15 1009 29.8 838 24.75 13.6 56.5 37 -0.6 30.9
18:20 1009 29.8 838 24.75 13.5 56.4 39 -0.2 31.7
18:25 1009 29.8 838 24.75 13.4 56.1 39 -0.2 31.6
18:30 1009 29.8 838 24.75 13.3 55.9 39 -0.3 31.5
18:35 1009 29.8 838 24.75 13.2 55.8 40 -0.1 31.8
18:40 1009 29.8 838 24.75 13.1 55.5 40 -0.1 31.8
18:45 1009 29.8 838 24.75 13 55.3 41 0.1 32.2
18:50 1009 29.8 838 24.75 12.9 55.2 41 0 32
18:55 1009 29.8 838 24.75 13 55.4 40 -0.1 31.9
19:00 1009 29.8 838 24.75 13 55.4 41 0 32
19:05 1009 29.8 838 24.75 12.9 55.2 41 0.1 32.2
19:10 1008 29.77 838 24.75 12.8 55 42 0.2 32.4
19:15 1008 29.77 838 24.75 12.7 54.9 42 0.2 32.3
19:20 1008 29.77 838 24.75 12.7 54.9 41 0 32
19:25 1008 29.77 838 24.75 12.9 55.2 41 -0 31.9
19:30 1008 29.77 838 24.75 13 55.4 41 0.1 32.2
19:35 1008 29.77 838 24.75 13 55.3 41 0.1 32.2
19:40 1008 29.77 838 24.75 13 55.4 41 0 32
19:45 1008 29.77 838 24.75 13.2 55.7 42 0.5 32.9
19:50 1008 29.77 838 24.75 12.8 55.1 44 0.9 33.6
19:55 1008 29.77 837 24.72 12.5 54.5 44 0.7 33.3
20:00 1008 29.77 837 24.72 12.5 54.5 42 -0.1 31.9
20:05 1008 29.77 837 24.72 12.9 55.3 41 0.1 32.3
20:10 1008 29.77 837 24.72 13.1 55.6 41 0.3 32.5
20:15 1008 29.77 837 24.72 13 55.4 42 0.5 32.9
20:20 1008 29.77 837 24.72 12.9 55.1 42 0.2 32.3
20:25 1008 29.77 837 24.72 13 55.4 42 0.5 32.9
20:30 1008 29.77 837 24.72 12.8 55 43 0.6 33.1
20:35 1008 29.77 837 24.72 12.8 55 43 0.5 32.8
20:40 1008 29.77 837 24.72 12.7 54.8 44 0.7 33.3
20:45 1008 29.77 837 24.72 12.5 54.4 45 0.8 33.5
20:50 1007 29.74 837 24.72 12.2 54 46 0.9 33.7
20:55 1007 29.74 836 24.69 12 53.5 47 1 33.8
21:00 1007 29.74 836 24.69 11.7 53.1 48 1 33.8
21:05 1007 29.74 836 24.69 12 53.5 46 0.7 33.2
21:10 1007 29.74 836 24.69 12.2 53.9 47 1.1 34.1
21:15 1007 29.74 836 24.69 11.9 53.3 49 1.4 34.5
21:20 1007 29.74 836 24.69 11.8 53.2 49 1.4 34.5
21:25 1007 29.74 836 24.69 11.6 52.9 49 1.2 34.2
21:30 1007 29.74 836 24.69 11.6 53 49 1.3 34.3
21:35 1007 29.74 836 24.69 11.7 53 49 1.3 34.4
21:40 1007 29.74 836 24.69 11.7 53 50 1.5 34.7
21:45 1007 29.74 836 24.69 11.5 52.8 50 1.6 34.9
21:50 1007 29.74 836 24.69 11.5 52.7 51 1.6 34.9
21:55 1007 29.74 836 24.69 11.5 52.8 51 1.8 35.3
22:00 1007 29.74 836 24.69 11.5 52.7 51 1.8 35.2
22:05 1007 29.74 836 24.69 11.6 52.8 51 1.9 35.4
22:10 1007 29.74 836 24.69 11.6 52.9 51 1.8 35.3
22:15 1007 29.74 836 24.69 11.9 53.5 49 1.5 34.8
22:20 1006 29.71 836 24.69 12.1 53.8 49 1.9 35.4
22:25 1006 29.71 836 24.69 12.4 54.3 47 1.6 34.8
22:30 1006 29.71 835 24.66 12.8 55.1 47 1.9 35.4
22:35 1006 29.71 835 24.66 12.8 55.1 47 1.9 35.4
22:40 1006 29.71 835 24.66 13.1 55.5 46 1.6 35
22:45 1005 29.68 835 24.66 13.5 56.3 45 1.9 35.4
22:50 1005 29.68 834 24.63 13.2 55.7 48 2.4 36.3
22:55 1005 29.68 834 24.63 12.4 54.4 50 2.3 36.2
23:00 1005 29.68 834 24.63 12.3 54.1 49 2 35.6
23:05 1005 29.68 834 24.63 12.6 54.7 48 2 35.7
23:10 1005 29.68 834 24.63 12.8 55 48 2 35.6
23:15 1005 29.68 834 24.63 12.9 55.3 47 2.1 35.7
23:20 1005 29.68 834 24.63 12.9 55.1 47 1.9 35.5
23:25 1005 29.68 834 24.63 12.7 54.8 48 2.1 35.8
23:30 1005 29.68 834 24.63 12.4 54.2 50 2.2 36
23:35 1005 29.68 834 24.63 12 53.6 54 3 37.5
23:40 1005 29.68 834 24.63 11.7 53 54 2.8 37.1
23:45 1005 29.68 834 24.63 11.8 53.2 54 2.8 37
23:50 1005 29.68 834 24.63 11.9 53.4 52 2.3 36.1
23:55 1004 29.65 834 24.63 12 53.7 50 2 35.6
24:00 1004 29.65 834 24.63 12.3 54.1 52 2.8 37